Terminal Aerodrome Forecast
Issued by NWS

Home | Current Version | Previous Version | Text Only | Print | Product List | Glossary On
Versions: 1 2 3 4 5 6 7 8 9 10 11 12 13 14
000
FTUS45 KRIW 030200 AAA
TAFJAC
TAF AMD
KJAC 030201Z 0302/0324 36006KT 2SM -SN OVC025
     FM030800 26008KT 1SM -SN SCT006 OVC015
     FM031300 02005KT P6SM -SN BKN020
     FM031800 02004KT P6SM SCT020
      AMD LTD TO CLD VIS AND WIND=

USA.gov is the U.S. government's official web portal to all federal, state and local government web resources and services.